TKJ4123 LTCU-LTAC
Flight info
| Callsign | TKJ4123 |
|---|---|
| Flight time | 1h 3m |
| Altitude | 36000 |
| Route | ROTKU UT308 EZS UG8 GOBIT |
| Aircraft | B38M/M-SDE1FGHILORVWXY/HB1 |
Departure
| Time | 2026-04-21 14:18 |
|---|---|
| Airport | Bingöl Airport (LTCU) |
Arrival
| Time | 2026-04-21 15:22 |
|---|---|
| Airport | Esenboğa International Airport (LTAC) |
| Time | Latitude | Longitude | Altitude | Speed | Heading |
|---|---|---|---|---|---|
| 2026-04-21 13:26 | 38.85941 | 40.59091 | 3558 ft | 0 kts | 249° |
| 2026-04-21 14:12 | 38.85941 | 40.59089 | 3568 ft | 0 kts | 256° |
| 2026-04-21 14:12 | 38.85943 | 40.59085 | 3568 ft | 1 kts | 292° |
| 2026-04-21 14:12 | 38.85952 | 40.59079 | 3569 ft | 2 kts | 345° |
| 2026-04-21 14:12 | 38.85967 | 40.59084 | 3579 ft | 2 kts | 33° |
| 2026-04-21 14:13 | 38.85971 | 40.59104 | 3578 ft | 3 kts | 95° |
| 2026-04-21 14:13 | 38.85978 | 40.59142 | 3579 ft | 6 kts | 52° |
| 2026-04-21 14:13 | 38.86018 | 40.59179 | 3577 ft | 7 kts | 32° |
| 2026-04-21 14:13 | 38.86065 | 40.59217 | 3575 ft | 9 kts | 33° |
| 2026-04-21 14:14 | 38.86081 | 40.59297 | 3573 ft | 11 kts | 112° |
| 2026-04-21 14:14 | 38.86041 | 40.59388 | 3574 ft | 12 kts | 120° |
| 2026-04-21 14:14 | 38.86001 | 40.59475 | 3578 ft | 11 kts | 121° |
| 2026-04-21 14:14 | 38.85961 | 40.59563 | 3576 ft | 12 kts | 121° |
| 2026-04-21 14:15 | 38.85913 | 40.59666 | 3578 ft | 14 kts | 121° |
| 2026-04-21 14:15 | 38.85861 | 40.59778 | 3572 ft | 15 kts | 121° |
| 2026-04-21 14:15 | 38.85802 | 40.59906 | 3574 ft | 19 kts | 120° |
| 2026-04-21 14:15 | 38.85731 | 40.60057 | 3573 ft | 20 kts | 121° |
| 2026-04-21 14:16 | 38.85658 | 40.60215 | 3570 ft | 21 kts | 120° |
| 2026-04-21 14:16 | 38.85582 | 40.60378 | 3571 ft | 20 kts | 120° |
| 2026-04-21 14:16 | 38.85550 | 40.60503 | 3575 ft | 12 kts | 83° |
| 2026-04-21 14:16 | 38.85539 | 40.60589 | 3572 ft | 7 kts | 142° |
| 2026-04-21 14:17 | 38.85500 | 40.60571 | 3572 ft | 7 kts | 250° |
| 2026-04-21 14:17 | 38.85513 | 40.60527 | 3575 ft | 0 kts | 301° |
| 2026-04-21 14:17 | 38.85533 | 40.60484 | 3572 ft | 27 kts | 301° |
| 2026-04-21 14:18 | 38.85763 | 40.59990 | 3573 ft | 100 kts | 301° |
| 2026-04-21 14:18 | 38.86231 | 40.58984 | 3572 ft | 161 kts | 301° |
| 2026-04-21 14:18 | 38.86857 | 40.57665 | 3989 ft | 176 kts | 299° |
| 2026-04-21 14:18 | 38.87514 | 40.56321 | 4747 ft | 181 kts | 300° |
| 2026-04-21 14:19 | 38.88169 | 40.54938 | 5555 ft | 180 kts | 293° |
| 2026-04-21 14:19 | 38.88392 | 40.53420 | 6378 ft | 171 kts | 266° |
| 2026-04-21 14:19 | 38.88219 | 40.51901 | 7052 ft | 176 kts | 260° |
| 2026-04-21 14:19 | 38.87973 | 40.50299 | 7643 ft | 190 kts | 259° |
| 2026-04-21 14:20 | 38.87701 | 40.48599 | 8199 ft | 205 kts | 259° |
| 2026-04-21 14:20 | 38.87404 | 40.46733 | 8715 ft | 225 kts | 259° |
| 2026-04-21 14:20 | 38.87077 | 40.44676 | 9281 ft | 245 kts | 259° |
| 2026-04-21 14:20 | 38.86725 | 40.42451 | 9956 ft | 260 kts | 259° |
| 2026-04-21 14:21 | 38.86367 | 40.40198 | 11043 ft | 256 kts | 259° |
| 2026-04-21 14:21 | 38.86007 | 40.37919 | 11842 ft | 266 kts | 259° |
| 2026-04-21 14:21 | 38.85627 | 40.35518 | 12384 ft | 284 kts | 260° |
| 2026-04-21 14:21 | 38.85222 | 40.32968 | 12856 ft | 303 kts | 260° |
| 2026-04-21 14:22 | 38.84788 | 40.30233 | 13300 ft | 322 kts | 260° |
| 2026-04-21 14:22 | 38.84329 | 40.27352 | 13828 ft | 337 kts | 260° |
| 2026-04-21 14:22 | 38.83849 | 40.24350 | 14346 ft | 348 kts | 260° |
| 2026-04-21 14:22 | 38.83362 | 40.21307 | 15209 ft | 349 kts | 260° |
| 2026-04-21 14:23 | 38.82871 | 40.18242 | 15923 ft | 354 kts | 260° |
| 2026-04-21 14:23 | 38.82373 | 40.15135 | 16641 ft | 357 kts | 260° |
| 2026-04-21 14:23 | 38.82041 | 40.13067 | 17113 ft | 359 kts | 260° |
| 2026-04-21 14:23 | 38.81359 | 40.08831 | 18051 ft | 365 kts | 260° |
| 2026-04-21 14:24 | 38.81017 | 40.06715 | 18473 ft | 367 kts | 260° |
| 2026-04-21 14:24 | 38.80498 | 40.03497 | 19073 ft | 371 kts | 260° |
| 2026-04-21 14:24 | 38.79973 | 40.00253 | 19705 ft | 373 kts | 260° |
| 2026-04-21 14:24 | 38.79445 | 39.96983 | 20293 ft | 376 kts | 261° |
| 2026-04-21 14:25 | 38.79072 | 39.93653 | 20870 ft | 378 kts | 264° |
| 2026-04-21 14:25 | 38.78709 | 39.90307 | 21463 ft | 381 kts | 263° |
| 2026-04-21 14:25 | 38.78333 | 39.86931 | 22047 ft | 384 kts | 263° |
| 2026-04-21 14:25 | 38.77947 | 39.83521 | 22609 ft | 387 kts | 263° |
| 2026-04-21 14:26 | 38.77557 | 39.80094 | 23190 ft | 390 kts | 263° |
| 2026-04-21 14:26 | 38.77164 | 39.76645 | 23705 ft | 393 kts | 263° |
| 2026-04-21 14:26 | 38.76769 | 39.73204 | 24143 ft | 396 kts | 263° |
| 2026-04-21 14:26 | 38.76362 | 39.69659 | 24625 ft | 398 kts | 264° |
| 2026-04-21 14:27 | 38.75963 | 39.66193 | 25080 ft | 400 kts | 264° |
| 2026-04-21 14:27 | 38.75554 | 39.62656 | 25529 ft | 403 kts | 264° |
| 2026-04-21 14:27 | 38.75142 | 39.59099 | 25962 ft | 405 kts | 264° |
| 2026-04-21 14:27 | 38.74725 | 39.55513 | 26381 ft | 408 kts | 264° |
| 2026-04-21 14:28 | 38.74306 | 39.51919 | 26823 ft | 409 kts | 264° |
| 2026-04-21 14:28 | 38.73885 | 39.48307 | 27260 ft | 411 kts | 264° |
| 2026-04-21 14:28 | 38.73459 | 39.44673 | 27654 ft | 414 kts | 264° |
| 2026-04-21 14:28 | 38.73029 | 39.41015 | 28054 ft | 416 kts | 264° |
| 2026-04-21 14:29 | 38.72597 | 39.37349 | 28486 ft | 418 kts | 264° |
| 2026-04-21 14:29 | 38.72161 | 39.33658 | 28867 ft | 420 kts | 264° |
| 2026-04-21 14:29 | 38.71722 | 39.29945 | 29248 ft | 423 kts | 264° |
| 2026-04-21 14:29 | 38.71279 | 39.26214 | 29626 ft | 425 kts | 264° |
| 2026-04-21 14:30 | 38.71018 | 39.22459 | 29970 ft | 423 kts | 275° |
| 2026-04-21 14:30 | 38.71461 | 39.18752 | 30306 ft | 423 kts | 282° |
| 2026-04-21 14:30 | 38.71977 | 39.15021 | 30540 ft | 426 kts | 282° |
| 2026-04-21 14:30 | 38.72509 | 39.11279 | 30859 ft | 428 kts | 282° |
| 2026-04-21 14:31 | 38.73057 | 39.07525 | 31164 ft | 430 kts | 282° |
| 2026-04-21 14:31 | 38.73613 | 39.03757 | 31450 ft | 432 kts | 282° |
| 2026-04-21 14:31 | 38.74171 | 38.99976 | 31815 ft | 432 kts | 282° |
| 2026-04-21 14:31 | 38.74728 | 38.96208 | 32252 ft | 430 kts | 282° |
| 2026-04-21 14:32 | 38.75285 | 38.92438 | 32663 ft | 429 kts | 282° |
| 2026-04-21 14:32 | 38.75851 | 38.88678 | 33048 ft | 429 kts | 282° |
| 2026-04-21 14:32 | 38.76412 | 38.84977 | 33438 ft | 428 kts | 282° |
| 2026-04-21 14:32 | 38.76977 | 38.81234 | 33838 ft | 427 kts | 281° |
| 2026-04-21 14:33 | 38.77538 | 38.77501 | 34177 ft | 427 kts | 281° |
| 2026-04-21 14:33 | 38.78099 | 38.73765 | 34496 ft | 426 kts | 281° |
| 2026-04-21 14:33 | 38.78657 | 38.70035 | 34822 ft | 425 kts | 281° |
| 2026-04-21 14:33 | 38.79213 | 38.66319 | 35135 ft | 425 kts | 281° |
| 2026-04-21 14:34 | 38.79768 | 38.62594 | 35443 ft | 425 kts | 281° |
| 2026-04-21 14:34 | 38.80320 | 38.58882 | 35757 ft | 424 kts | 281° |
| 2026-04-21 14:34 | 38.80872 | 38.55161 | 35928 ft | 426 kts | 281° |
| 2026-04-21 14:35 | 38.81989 | 38.47617 | 35927 ft | 434 kts | 280° |
| 2026-04-21 14:35 | 38.83115 | 38.39966 | 35929 ft | 434 kts | 280° |
| 2026-04-21 14:36 | 38.84211 | 38.32481 | 35933 ft | 422 kts | 280° |
| 2026-04-21 14:36 | 38.85288 | 38.25093 | 35931 ft | 421 kts | 280° |
| 2026-04-21 14:37 | 38.86360 | 38.17709 | 35933 ft | 421 kts | 280° |
| 2026-04-21 14:37 | 38.87418 | 38.10388 | 35933 ft | 420 kts | 280° |
| 2026-04-21 14:38 | 38.88480 | 38.03005 | 35934 ft | 420 kts | 280° |
| 2026-04-21 14:38 | 38.89536 | 37.95631 | 35933 ft | 420 kts | 280° |
| 2026-04-21 14:39 | 38.90585 | 37.88264 | 35936 ft | 419 kts | 280° |
| 2026-04-21 14:39 | 38.91631 | 37.80888 | 35934 ft | 419 kts | 279° |
| 2026-04-21 14:40 | 38.92671 | 37.73522 | 35935 ft | 419 kts | 279° |
| 2026-04-21 14:40 | 38.93706 | 37.66151 | 35940 ft | 419 kts | 279° |
| 2026-04-21 14:41 | 38.94729 | 37.58832 | 35940 ft | 419 kts | 279° |
| 2026-04-21 14:41 | 38.95753 | 37.51468 | 35942 ft | 419 kts | 279° |
| 2026-04-21 14:42 | 38.96774 | 37.44099 | 35947 ft | 419 kts | 279° |
| 2026-04-21 14:42 | 38.97788 | 37.36736 | 35944 ft | 418 kts | 279° |
| 2026-04-21 14:43 | 38.98799 | 37.29366 | 35948 ft | 418 kts | 279° |
| 2026-04-21 14:43 | 38.99803 | 37.22009 | 35951 ft | 418 kts | 279° |
| 2026-04-21 14:44 | 39.00803 | 37.14639 | 35955 ft | 418 kts | 279° |
| 2026-04-21 14:44 | 39.01799 | 37.07271 | 35958 ft | 418 kts | 279° |
| 2026-04-21 14:45 | 39.02790 | 36.99903 | 35963 ft | 418 kts | 279° |
| 2026-04-21 14:45 | 39.03775 | 36.92533 | 35964 ft | 418 kts | 279° |
| 2026-04-21 14:46 | 39.04750 | 36.85216 | 35968 ft | 418 kts | 279° |
| 2026-04-21 14:46 | 39.05726 | 36.77842 | 35967 ft | 418 kts | 279° |
| 2026-04-21 14:47 | 39.06699 | 36.70462 | 35965 ft | 418 kts | 279° |
| 2026-04-21 14:47 | 39.07665 | 36.63093 | 35966 ft | 418 kts | 279° |
| 2026-04-21 14:48 | 39.08630 | 36.55697 | 35968 ft | 418 kts | 279° |
| 2026-04-21 14:48 | 39.09588 | 36.48319 | 35970 ft | 418 kts | 279° |
| 2026-04-21 14:49 | 39.10541 | 36.40936 | 35970 ft | 418 kts | 279° |
| 2026-04-21 14:49 | 39.11482 | 36.33610 | 35970 ft | 417 kts | 279° |
| 2026-04-21 14:50 | 39.12273 | 36.27429 | 35970 ft | 417 kts | 279° |
| 2026-04-21 14:50 | 39.13364 | 36.18872 | 35973 ft | 417 kts | 279° |
| 2026-04-21 14:51 | 39.14298 | 36.11503 | 35969 ft | 416 kts | 279° |
| 2026-04-21 14:51 | 39.15230 | 36.04149 | 35970 ft | 416 kts | 281° |
| 2026-04-21 14:52 | 39.17108 | 35.97120 | 35966 ft | 415 kts | 290° |
| 2026-04-21 14:52 | 39.19151 | 35.90163 | 35972 ft | 415 kts | 290° |
| 2026-04-21 14:53 | 39.21204 | 35.83219 | 35978 ft | 414 kts | 290° |
| 2026-04-21 14:53 | 39.23255 | 35.76270 | 35976 ft | 414 kts | 290° |
| 2026-04-21 14:54 | 39.25290 | 35.69361 | 35979 ft | 414 kts | 290° |
| 2026-04-21 14:54 | 39.27329 | 35.62417 | 35979 ft | 413 kts | 290° |
| 2026-04-21 14:55 | 39.29364 | 35.55468 | 35979 ft | 413 kts | 290° |
| 2026-04-21 14:55 | 39.31393 | 35.48525 | 35974 ft | 413 kts | 290° |
| 2026-04-21 14:56 | 39.33413 | 35.41592 | 35978 ft | 412 kts | 290° |
| 2026-04-21 14:56 | 39.35429 | 35.34655 | 35969 ft | 412 kts | 290° |
| 2026-04-21 14:57 | 39.37437 | 35.27726 | 35974 ft | 411 kts | 290° |
| 2026-04-21 14:57 | 39.39428 | 35.20842 | 35973 ft | 411 kts | 290° |
| 2026-04-21 14:58 | 39.41463 | 35.13936 | 35966 ft | 411 kts | 291° |
| 2026-04-21 14:58 | 39.43501 | 35.07036 | 35961 ft | 410 kts | 291° |
| 2026-04-21 14:59 | 39.45528 | 35.00148 | 35956 ft | 409 kts | 291° |
| 2026-04-21 14:59 | 39.47547 | 34.93271 | 35963 ft | 409 kts | 291° |
| 2026-04-21 15:00 | 39.49564 | 34.86387 | 35280 ft | 409 kts | 291° |
| 2026-04-21 15:00 | 39.50579 | 34.82917 | 34394 ft | 414 kts | 291° |
| 2026-04-21 15:00 | 39.51594 | 34.79438 | 33855 ft | 410 kts | 291° |
| 2026-04-21 15:00 | 39.52595 | 34.76004 | 33252 ft | 405 kts | 291° |
| 2026-04-21 15:01 | 39.53584 | 34.72605 | 32678 ft | 402 kts | 291° |
| 2026-04-21 15:01 | 39.54563 | 34.69238 | 32155 ft | 397 kts | 291° |
| 2026-04-21 15:01 | 39.55532 | 34.65902 | 31635 ft | 393 kts | 291° |
| 2026-04-21 15:01 | 39.56488 | 34.62607 | 31120 ft | 389 kts | 292° |
| 2026-04-21 15:02 | 39.57420 | 34.59386 | 30613 ft | 385 kts | 292° |
| 2026-04-21 15:02 | 39.58356 | 34.56153 | 30093 ft | 382 kts | 292° |
| 2026-04-21 15:02 | 39.59288 | 34.52929 | 29536 ft | 382 kts | 292° |
| 2026-04-21 15:02 | 39.60221 | 34.49694 | 28975 ft | 383 kts | 292° |
| 2026-04-21 15:03 | 39.61152 | 34.46464 | 28473 ft | 382 kts | 292° |
| 2026-04-21 15:03 | 39.62078 | 34.43248 | 27985 ft | 379 kts | 292° |
| 2026-04-21 15:03 | 39.62997 | 34.40053 | 27486 ft | 377 kts | 291° |
| 2026-04-21 15:03 | 39.63911 | 34.36873 | 26987 ft | 375 kts | 291° |
| 2026-04-21 15:04 | 39.64819 | 34.33704 | 26500 ft | 374 kts | 291° |
| 2026-04-21 15:04 | 39.65724 | 34.30547 | 26003 ft | 372 kts | 291° |
| 2026-04-21 15:04 | 39.66624 | 34.27403 | 25514 ft | 370 kts | 291° |
| 2026-04-21 15:04 | 39.67516 | 34.24279 | 25027 ft | 369 kts | 291° |
| 2026-04-21 15:05 | 39.68406 | 34.21163 | 24540 ft | 367 kts | 291° |
| 2026-04-21 15:05 | 39.70174 | 34.14959 | 23574 ft | 365 kts | 291° |
| 2026-04-21 15:05 | 39.71052 | 34.11871 | 23014 ft | 363 kts | 291° |
| 2026-04-21 15:06 | 39.71911 | 34.08850 | 22519 ft | 360 kts | 291° |
| 2026-04-21 15:06 | 39.72772 | 34.05814 | 22047 ft | 356 kts | 291° |
| 2026-04-21 15:06 | 39.73624 | 34.02810 | 21583 ft | 352 kts | 290° |
| 2026-04-21 15:06 | 39.74465 | 33.99840 | 21127 ft | 350 kts | 290° |
| 2026-04-21 15:07 | 39.75306 | 33.96869 | 20671 ft | 351 kts | 290° |
| 2026-04-21 15:07 | 39.76147 | 33.93896 | 20219 ft | 351 kts | 290° |
| 2026-04-21 15:07 | 39.76996 | 33.90925 | 19730 ft | 350 kts | 292° |
| 2026-04-21 15:07 | 39.78301 | 33.88257 | 19183 ft | 352 kts | 312° |
| 2026-04-21 15:08 | 39.80099 | 33.86116 | 18784 ft | 348 kts | 316° |
| 2026-04-21 15:08 | 39.81905 | 33.84044 | 18364 ft | 345 kts | 317° |
| 2026-04-21 15:08 | 39.83714 | 33.81999 | 17873 ft | 343 kts | 317° |
| 2026-04-21 15:08 | 39.85516 | 33.79982 | 17407 ft | 340 kts | 317° |
| 2026-04-21 15:09 | 39.87306 | 33.77990 | 16959 ft | 337 kts | 317° |
| 2026-04-21 15:09 | 39.89087 | 33.76012 | 16526 ft | 336 kts | 317° |
| 2026-04-21 15:09 | 39.90873 | 33.74031 | 16073 ft | 337 kts | 317° |
| 2026-04-21 15:09 | 39.92660 | 33.72047 | 15632 ft | 337 kts | 317° |
| 2026-04-21 15:10 | 39.94446 | 33.70064 | 15191 ft | 337 kts | 317° |
| 2026-04-21 15:10 | 39.96226 | 33.68088 | 14759 ft | 336 kts | 317° |
| 2026-04-21 15:10 | 39.98000 | 33.66116 | 14327 ft | 334 kts | 317° |
| 2026-04-21 15:10 | 39.99766 | 33.64152 | 13878 ft | 332 kts | 317° |
| 2026-04-21 15:11 | 40.01513 | 33.62208 | 13401 ft | 329 kts | 317° |
| 2026-04-21 15:11 | 40.03251 | 33.60271 | 12933 ft | 326 kts | 317° |
| 2026-04-21 15:11 | 40.04389 | 33.59003 | 12638 ft | 324 kts | 317° |
| 2026-04-21 15:11 | 40.06666 | 33.56463 | 12062 ft | 320 kts | 317° |
| 2026-04-21 15:12 | 40.07781 | 33.55219 | 11784 ft | 317 kts | 317° |
| 2026-04-21 15:12 | 40.09453 | 33.53352 | 11357 ft | 315 kts | 317° |
| 2026-04-21 15:12 | 40.11069 | 33.51547 | 10944 ft | 312 kts | 317° |
| 2026-04-21 15:12 | 40.12733 | 33.49687 | 10680 ft | 303 kts | 317° |
| 2026-04-21 15:13 | 40.14303 | 33.47930 | 10528 ft | 292 kts | 317° |
| 2026-04-21 15:13 | 40.16300 | 33.45693 | 10316 ft | 279 kts | 316° |
| 2026-04-21 15:13 | 40.17281 | 33.44594 | 10209 ft | 272 kts | 316° |
| 2026-04-21 15:13 | 40.18694 | 33.43010 | 10072 ft | 262 kts | 316° |
| 2026-04-21 15:14 | 40.20066 | 33.41472 | 9789 ft | 258 kts | 316° |
| 2026-04-21 15:14 | 40.21420 | 33.39952 | 9424 ft | 256 kts | 316° |
| 2026-04-21 15:14 | 40.22745 | 33.38464 | 9094 ft | 253 kts | 316° |
| 2026-04-21 15:14 | 40.24093 | 33.36952 | 8759 ft | 250 kts | 316° |
| 2026-04-21 15:15 | 40.25380 | 33.35497 | 8457 ft | 247 kts | 314° |
| 2026-04-21 15:15 | 40.26582 | 33.33901 | 8143 ft | 245 kts | 310° |
| 2026-04-21 15:15 | 40.27736 | 33.32266 | 7799 ft | 244 kts | 308° |
| 2026-04-21 15:15 | 40.28729 | 33.30476 | 7450 ft | 242 kts | 300° |
| 2026-04-21 15:16 | 40.29619 | 33.28581 | 7148 ft | 240 kts | 299° |
| 2026-04-21 15:16 | 40.30438 | 33.26747 | 6994 ft | 231 kts | 293° |
| 2026-04-21 15:16 | 40.30799 | 33.24780 | 6920 ft | 216 kts | 268° |
| 2026-04-21 15:16 | 40.30507 | 33.22915 | 6838 ft | 207 kts | 250° |
| 2026-04-21 15:17 | 40.29943 | 33.21100 | 6739 ft | 222 kts | 248° |
| 2026-04-21 15:17 | 40.29335 | 33.19209 | 6606 ft | 227 kts | 248° |
| 2026-04-21 15:17 | 40.28722 | 33.17328 | 6466 ft | 219 kts | 248° |
| 2026-04-21 15:17 | 40.28150 | 33.15557 | 6456 ft | 202 kts | 249° |
| 2026-04-21 15:18 | 40.27507 | 33.14005 | 6316 ft | 189 kts | 234° |
| 2026-04-21 15:18 | 40.26572 | 33.12829 | 6106 ft | 187 kts | 219° |
| 2026-04-21 15:18 | 40.25509 | 33.11843 | 5899 ft | 184 kts | 219° |
| 2026-04-21 15:18 | 40.24487 | 33.10880 | 5675 ft | 178 kts | 220° |
| 2026-04-21 15:19 | 40.23504 | 33.09931 | 5481 ft | 167 kts | 220° |
| 2026-04-21 15:19 | 40.22614 | 33.09074 | 5268 ft | 154 kts | 220° |
| 2026-04-21 15:19 | 40.21762 | 33.08254 | 5054 ft | 152 kts | 220° |
| 2026-04-21 15:19 | 40.20913 | 33.07436 | 4841 ft | 151 kts | 219° |
| 2026-04-21 15:20 | 40.20072 | 33.06628 | 4628 ft | 149 kts | 218° |
| 2026-04-21 15:20 | 40.19235 | 33.05827 | 4419 ft | 148 kts | 219° |
| 2026-04-21 15:20 | 40.18395 | 33.05020 | 4202 ft | 154 kts | 219° |
| 2026-04-21 15:20 | 40.17523 | 33.04193 | 4002 ft | 154 kts | 217° |
| 2026-04-21 15:21 | 40.16669 | 33.03382 | 3780 ft | 152 kts | 219° |
| 2026-04-21 15:21 | 40.15818 | 33.02548 | 3575 ft | 153 kts | 220° |
| 2026-04-21 15:21 | 40.14968 | 33.01731 | 3372 ft | 150 kts | 219° |
| 2026-04-21 15:21 | 40.14131 | 33.00924 | 3177 ft | 149 kts | 220° |
| 2026-04-21 15:22 | 40.13361 | 33.00182 | 3131 ft | 115 kts | 216° |
| 2026-04-21 15:22 | 40.12894 | 32.99738 | 3124 ft | 63 kts | 217° |
| 2026-04-21 15:22 | 40.12584 | 32.99441 | 3123 ft | 49 kts | 216° |
| 2026-04-21 15:22 | 40.12343 | 32.99211 | 3121 ft | 32 kts | 216° |
| 2026-04-21 15:23 | 40.12173 | 32.99048 | 3119 ft | 30 kts | 216° |
| 2026-04-21 15:23 | 40.12021 | 32.98903 | 3117 ft | 22 kts | 215° |
| 2026-04-21 15:23 | 40.11918 | 32.98850 | 3116 ft | 11 kts | 155° |
| 2026-04-21 15:23 | 40.11866 | 32.98928 | 3116 ft | 12 kts | 127° |
| 2026-04-21 15:24 | 40.11815 | 32.99020 | 3116 ft | 13 kts | 126° |
| 2026-04-21 15:24 | 40.11751 | 32.99109 | 3115 ft | 14 kts | 149° |
| 2026-04-21 15:24 | 40.11711 | 32.99175 | 3115 ft | 7 kts | 107° |
| 2026-04-21 15:24 | 40.11677 | 32.99219 | 3115 ft | 4 kts | 153° |
| 2026-04-21 15:25 | 40.11657 | 32.99232 | 3115 ft | 1 kts | 155° |
| 2026-04-21 15:25 | 40.11656 | 32.99233 | 3115 ft | 0 kts | 155° |